createdAt,value
2024-01-20T00:00:20.000Z,0
2024-01-20T00:01:34.000Z,0
2024-01-20T00:02:49.000Z,0
2024-01-20T00:04:03.000Z,0
2024-01-20T00:05:17.000Z,0
2024-01-20T00:06:31.000Z,0
2024-01-20T00:07:46.218Z,0
2024-01-20T00:09:00.000Z,0
2024-01-20T00:10:14.790Z,0
2024-01-20T00:11:29.000Z,0
2024-01-20T00:12:43.000Z,0
2024-01-20T00:13:57.000Z,0
2024-01-20T00:16:26.000Z,0
2024-01-20T00:17:39.000Z,0
2024-01-20T00:18:53.000Z,0
2024-01-20T00:20:08.158Z,0
2024-01-20T00:21:22.000Z,0
2024-01-20T00:22:36.000Z,0
2024-01-20T00:23:51.000Z,0
2024-01-20T00:25:05.000Z,0
2024-01-20T00:26:19.000Z,0
2024-01-20T00:27:33.000Z,0
2024-01-20T00:28:48.000Z,0
2024-01-20T00:30:02.000Z,0
2024-01-20T00:31:16.000Z,0
2024-01-20T00:32:31.000Z,0
2024-01-20T00:33:45.000Z,0
2024-01-20T00:34:59.000Z,0
2024-01-20T00:36:13.000Z,0
2024-01-20T00:37:27.000Z,0
2024-01-20T00:39:55.890Z,0
2024-01-20T00:41:10.000Z,0
2024-01-20T00:42:24.000Z,0
2024-01-20T00:43:38.000Z,0
2024-01-20T00:44:53.000Z,0
2024-01-20T00:46:07.000Z,0
2024-01-20T00:47:21.000Z,0
2024-01-20T00:48:35.000Z,0
2024-01-20T00:49:50.000Z,0
2024-01-20T00:51:04.000Z,0
2024-01-20T00:52:17.856Z,0
2024-01-20T00:53:32.000Z,0
2024-01-20T00:54:46.000Z,0
2024-01-20T00:56:00.000Z,0
2024-01-20T00:57:15.000Z,0
2024-01-20T00:58:29.000Z,0
2024-01-20T00:59:43.000Z,0
2024-01-20T01:00:56.000Z,0
2024-01-20T01:02:11.232Z,0
2024-01-20T01:03:25.000Z,0
2024-01-20T01:04:39.000Z,0
2024-01-20T01:05:54.000Z,0
2024-01-20T01:07:08.400Z,0
2024-01-20T01:08:22.000Z,0
2024-01-20T01:09:36.988Z,0
2024-01-20T01:10:51.000Z,0
2024-01-20T01:12:05.000Z,0
2024-01-20T01:13:19.000Z,0
2024-01-20T01:15:48.000Z,0
2024-01-20T01:17:02.000Z,0
2024-01-20T01:18:16.000Z,0
2024-01-20T01:19:30.000Z,0
2024-01-20T01:20:44.000Z,0
2024-01-20T01:21:58.949Z,0
2024-01-20T01:23:13.258Z,0
2024-01-20T01:24:27.000Z,0
2024-01-20T01:25:41.000Z,0
2024-01-20T01:26:56.125Z,0
2024-01-20T01:28:10.000Z,0
2024-01-20T01:29:24.000Z,0
2024-01-20T01:30:39.000Z,0
2024-01-20T01:33:07.000Z,0
2024-01-20T01:34:21.000Z,0
2024-01-20T01:35:35.000Z,0
2024-01-20T01:36:49.000Z,0
2024-01-20T01:38:03.000Z,0
2024-01-20T01:39:18.000Z,0
2024-01-20T01:40:32.000Z,0
2024-01-20T01:41:46.000Z,0
2024-01-20T01:43:00.000Z,0
2024-01-20T01:44:15.000Z,0
2024-01-20T01:45:29.000Z,0
2024-01-20T01:46:43.000Z,0
2024-01-20T01:47:58.000Z,0
2024-01-20T01:49:12.000Z,0
2024-01-20T01:50:26.000Z,0
2024-01-20T01:51:40.000Z,0
2024-01-20T01:52:54.000Z,0
2024-01-20T01:54:08.630Z,0
2024-01-20T01:55:22.000Z,0
2024-01-20T01:56:37.000Z,0
2024-01-20T01:57:51.000Z,0
2024-01-20T01:59:05.000Z,0
2024-01-20T02:00:20.000Z,0
2024-01-20T02:01:34.410Z,0
2024-01-20T02:02:48.000Z,0
2024-01-20T02:04:03.000Z,0
2024-01-20T02:05:17.000Z,0
2024-01-20T02:07:45.000Z,0
2024-01-20T02:08:59.000Z,0
2024-01-20T02:10:13.000Z,0
2024-01-20T02:11:27.000Z,0
2024-01-20T02:12:42.000Z,0
2024-01-20T02:13:56.000Z,0
2024-01-20T02:15:10.000Z,0
2024-01-20T02:16:24.960Z,0
2024-01-20T02:18:53.533Z,0
2024-01-20T02:20:07.000Z,0
2024-01-20T02:21:22.000Z,0
2024-01-20T02:22:36.000Z,0
2024-01-20T02:23:50.000Z,0
2024-01-20T02:25:05.000Z,0
2024-01-20T02:26:19.000Z,0
2024-01-20T02:27:32.000Z,0
2024-01-20T02:28:46.905Z,0
2024-01-20T02:30:01.000Z,0
2024-01-20T02:31:15.498Z,0
2024-01-20T02:32:29.000Z,0
2024-01-20T02:33:44.000Z,0
2024-01-20T02:34:58.000Z,0
2024-01-20T02:36:12.000Z,0
2024-01-20T02:37:26.000Z,0
2024-01-20T02:38:41.275Z,0
2024-01-20T02:39:55.000Z,0
2024-01-20T02:41:09.000Z,0
2024-01-20T02:42:24.000Z,0
2024-01-20T02:43:37.000Z,0
2024-01-20T02:44:51.000Z,0
2024-01-20T02:46:06.000Z,0
2024-01-20T02:47:20.000Z,0
2024-01-20T02:48:34.000Z,0
2024-01-20T02:49:48.000Z,0
2024-01-20T02:51:03.000Z,0
2024-01-20T02:52:17.000Z,0
2024-01-20T02:53:31.000Z,0
2024-01-20T02:54:46.000Z,0
2024-01-20T02:56:00.000Z,0
2024-01-20T02:57:14.000Z,0
2024-01-20T02:58:29.000Z,0
2024-01-20T02:59:42.292Z,0
2024-01-20T03:00:56.591Z,0
2024-01-20T03:02:10.000Z,0
2024-01-20T03:03:25.000Z,0
2024-01-20T03:04:39.000Z,0
2024-01-20T03:05:53.000Z,0
2024-01-20T03:07:08.000Z,0
2024-01-20T03:08:22.000Z,0
2024-01-20T03:09:36.000Z,0
2024-01-20T03:10:50.942Z,0
2024-01-20T03:12:05.000Z,0
2024-01-20T03:13:19.000Z,0
2024-01-20T03:14:33.000Z,0
2024-01-20T03:15:47.000Z,0
2024-01-20T03:17:01.000Z,0
2024-01-20T03:18:15.000Z,0
2024-01-20T03:19:30.000Z,0
2024-01-20T03:20:44.000Z,0
2024-01-20T03:21:58.000Z,0
2024-01-20T03:23:12.000Z,0
2024-01-20T03:24:27.000Z,0
2024-01-20T03:25:41.000Z,0
2024-01-20T03:26:55.784Z,0
2024-01-20T03:28:10.000Z,0
2024-01-20T03:29:24.000Z,0
2024-01-20T03:30:38.000Z,0
2024-01-20T03:31:52.000Z,0
2024-01-20T03:33:06.000Z,0
2024-01-20T03:34:20.000Z,0
2024-01-20T03:36:49.000Z,0
2024-01-20T03:38:03.000Z,0
2024-01-20T03:39:17.000Z,0
2024-01-20T03:40:32.000Z,0
2024-01-20T03:41:46.000Z,0
2024-01-20T03:43:00.000Z,0
2024-01-20T03:44:14.000Z,0
2024-01-20T03:45:29.000Z,0
2024-01-20T03:46:43.000Z,0
2024-01-20T03:47:56.000Z,0
2024-01-20T03:49:11.000Z,0
2024-01-20T03:50:25.000Z,0
2024-01-20T03:51:39.000Z,0
2024-01-20T03:52:54.000Z,0
2024-01-20T03:54:08.301Z,0
2024-01-20T03:55:22.000Z,0
2024-01-20T03:56:36.899Z,0
2024-01-20T03:59:05.484Z,0
2024-01-20T04:00:19.764Z,0
2024-01-20T04:01:34.067Z,0
2024-01-20T04:02:48.000Z,0
2024-01-20T04:04:01.000Z,0
2024-01-20T04:05:15.968Z,0
2024-01-20T04:06:30.000Z,0
2024-01-20T04:07:44.000Z,0
2024-01-20T04:08:58.000Z,0
2024-01-20T04:10:13.000Z,0
2024-01-20T04:11:27.000Z,0
2024-01-20T04:12:41.000Z,0
2024-01-20T04:13:56.000Z,0
2024-01-20T04:15:10.000Z,0
2024-01-20T04:16:24.623Z,0
2024-01-20T04:17:38.000Z,0
2024-01-20T04:18:53.000Z,0
2024-01-20T04:20:06.000Z,0
2024-01-20T04:21:20.000Z,0
2024-01-20T04:22:35.000Z,0
2024-01-20T04:23:49.409Z,0
2024-01-20T04:25:03.000Z,0
2024-01-20T04:26:17.996Z,0
2024-01-20T04:27:32.000Z,0
2024-01-20T04:28:46.000Z,0
2024-01-20T04:30:00.000Z,0
2024-01-20T04:31:15.000Z,0
2024-01-20T04:32:29.000Z,0
2024-01-20T04:33:43.000Z,0
2024-01-20T04:34:58.000Z,0
2024-01-20T04:36:11.000Z,0
2024-01-20T04:37:25.000Z,0
2024-01-20T04:38:39.000Z,0
2024-01-20T04:39:54.000Z,0
2024-01-20T04:41:08.000Z,0
2024-01-20T04:42:22.000Z,0
2024-01-20T04:43:37.000Z,0
2024-01-20T04:44:51.415Z,0
2024-01-20T04:46:05.000Z,0
2024-01-20T04:47:20.001Z,0
2024-01-20T04:48:34.000Z,0
2024-01-20T04:51:02.000Z,0
2024-01-20T04:52:16.198Z,0
2024-01-20T04:53:30.000Z,0
2024-01-20T04:54:44.000Z,0
2024-01-20T04:55:59.000Z,0
2024-01-20T04:57:13.000Z,0
2024-01-20T04:58:27.000Z,0
2024-01-20T04:59:41.000Z,0
2024-01-20T05:00:56.000Z,0
2024-01-20T05:02:10.000Z,0
2024-01-20T05:03:24.000Z,0
2024-01-20T05:04:39.000Z,0
2024-01-20T05:05:53.000Z,0
2024-01-20T05:07:07.000Z,0
2024-01-20T05:08:21.000Z,0
2024-01-20T05:09:34.000Z,0
2024-01-20T05:10:48.649Z,0
2024-01-20T05:12:02.000Z,0
2024-01-20T05:13:17.000Z,0
2024-01-20T05:14:31.542Z,0
2024-01-20T05:15:45.824Z,0
2024-01-20T05:17:00.123Z,0
2024-01-20T05:18:14.000Z,0
2024-01-20T05:20:43.000Z,0
2024-01-20T05:21:57.295Z,0
2024-01-20T05:23:11.000Z,0
2024-01-20T05:24:25.000Z,0
2024-01-20T05:25:39.000Z,0
2024-01-20T05:26:53.507Z,0
2024-01-20T05:28:07.000Z,0
2024-01-20T05:29:22.000Z,0
2024-01-20T05:30:36.000Z,0
2024-01-20T05:31:50.000Z,0
2024-01-20T05:33:04.000Z,0
2024-01-20T05:34:19.000Z,0
2024-01-20T05:35:33.000Z,0
2024-01-20T05:36:47.000Z,0
2024-01-20T05:38:02.000Z,0
2024-01-20T05:39:16.000Z,0
2024-01-20T05:40:30.000Z,0
2024-01-20T05:42:58.000Z,0
2024-01-20T05:44:12.000Z,0
2024-01-20T05:45:26.932Z,0
2024-01-20T05:46:41.000Z,0
2024-01-20T05:47:55.516Z,0
2024-01-20T05:49:09.000Z,0
2024-01-20T05:50:24.000Z,0
2024-01-20T05:51:38.394Z,0
2024-01-20T05:52:52.000Z,0
2024-01-20T05:54:07.000Z,0
2024-01-20T05:55:21.000Z,0
2024-01-20T05:56:35.573Z,0
2024-01-20T05:57:48.000Z,0
2024-01-20T05:59:03.000Z,0
2024-01-20T06:00:17.000Z,0
2024-01-20T06:01:31.000Z,0
2024-01-20T06:02:46.000Z,0
2024-01-20T06:04:00.000Z,0
2024-01-20T06:05:14.000Z,0
2024-01-20T06:06:28.000Z,0
2024-01-20T06:07:43.000Z,0
2024-01-20T06:08:57.000Z,0
2024-01-20T06:10:11.000Z,0
2024-01-20T06:12:40.000Z,0
2024-01-20T06:13:54.000Z,0
2024-01-20T06:15:07.000Z,1
2024-01-20T06:16:22.000Z,0
2024-01-20T06:17:36.000Z,0
2024-01-20T06:18:50.804Z,1
2024-01-20T06:20:05.000Z,1
2024-01-20T06:22:33.595Z,2
2024-01-20T06:23:47.000Z,1
2024-01-20T06:25:02.000Z,0
2024-01-20T06:26:16.000Z,0
2024-01-20T06:27:30.000Z,4
2024-01-20T06:28:44.000Z,2
2024-01-20T06:29:59.000Z,2
2024-01-20T06:31:12.000Z,1
2024-01-20T06:32:26.000Z,2
2024-01-20T06:34:55.000Z,3
2024-01-20T06:36:08.000Z,4
2024-01-20T06:37:21.000Z,5
2024-01-20T06:38:35.000Z,6
2024-01-20T06:39:50.000Z,7
2024-01-20T06:41:04.000Z,9
2024-01-20T06:42:18.000Z,10
2024-01-20T06:43:32.855Z,11
2024-01-20T06:44:47.000Z,14
2024-01-20T06:46:01.000Z,16
2024-01-20T06:47:15.000Z,18
2024-01-20T06:48:28.000Z,22
2024-01-20T06:49:42.000Z,30
2024-01-20T06:50:56.000Z,37
2024-01-20T06:52:10.000Z,43
2024-01-20T06:53:24.000Z,48
2024-01-20T06:54:39.000Z,60
2024-01-20T06:55:53.000Z,77
2024-01-20T06:57:07.000Z,89
2024-01-20T06:58:21.000Z,101
2024-01-20T06:59:36.000Z,108
2024-01-20T07:00:50.000Z,121
2024-01-20T07:02:04.000Z,132
2024-01-20T07:03:18.740Z,149
2024-01-20T07:04:32.000Z,170
2024-01-20T07:05:46.245Z,192
2024-01-20T07:07:00.469Z,214
2024-01-20T07:08:14.000Z,236
2024-01-20T07:09:28.000Z,262
2024-01-20T07:10:43.000Z,292
2024-01-20T07:11:57.000Z,319
2024-01-20T07:13:11.000Z,340
2024-01-20T07:14:25.000Z,372
2024-01-20T07:15:40.000Z,403
2024-01-20T07:16:54.000Z,427
2024-01-20T07:18:08.000Z,462
2024-01-20T07:19:22.000Z,496
2024-01-20T07:20:37.000Z,539
2024-01-20T07:21:51.000Z,580
2024-01-20T07:23:05.000Z,609
2024-01-20T07:24:18.000Z,606
2024-01-20T07:25:33.000Z,614
2024-01-20T07:26:47.000Z,671
2024-01-20T07:28:01.564Z,724
2024-01-20T07:29:15.000Z,763
2024-01-20T07:30:30.000Z,803
2024-01-20T07:31:44.285Z,844
2024-01-20T07:32:58.000Z,877
2024-01-20T07:34:12.000Z,908
2024-01-20T07:35:27.004Z,939
2024-01-20T07:36:41.000Z,980
2024-01-20T07:37:55.000Z,1017
2024-01-20T07:39:09.000Z,1051
2024-01-20T07:40:23.000Z,1089
2024-01-20T07:41:37.000Z,1146
2024-01-20T07:42:51.000Z,1197
2024-01-20T07:44:05.713Z,1239
2024-01-20T07:45:19.000Z,1279
2024-01-20T07:46:34.000Z,1312
2024-01-20T07:47:48.000Z,1326
2024-01-20T07:49:02.000Z,1360
2024-01-20T07:50:16.000Z,1410
2024-01-20T07:51:31.000Z,1414
2024-01-20T07:52:45.000Z,1440
2024-01-20T07:53:59.000Z,1497
2024-01-20T07:55:13.000Z,1526
2024-01-20T07:56:28.116Z,1557
2024-01-20T07:57:42.356Z,1587
2024-01-20T07:58:56.000Z,1628
2024-01-20T08:00:10.000Z,1653
2024-01-20T08:01:24.000Z,1681
2024-01-20T08:02:38.000Z,1716
2024-01-20T08:03:52.000Z,1769
2024-01-20T08:05:06.000Z,1778
2024-01-20T08:06:21.000Z,1788
2024-01-20T08:07:35.000Z,1765
2024-01-20T08:08:49.000Z,1828
2024-01-20T08:10:03.000Z,681
2024-01-20T08:11:18.000Z,1150
2024-01-20T08:12:32.000Z,3450
2024-01-20T08:13:46.000Z,4309
2024-01-20T08:15:00.000Z,2357
2024-01-20T08:16:14.000Z,2230
2024-01-20T08:17:29.000Z,2234
2024-01-20T08:18:42.000Z,2233
2024-01-20T08:19:56.000Z,2264
2024-01-20T08:21:10.000Z,2277
2024-01-20T08:22:25.000Z,2324
2024-01-20T08:23:39.000Z,2349
2024-01-20T08:24:53.000Z,2406
2024-01-20T08:26:07.000Z,2443
2024-01-20T08:27:22.144Z,2440
2024-01-20T08:28:36.000Z,2449
2024-01-20T08:29:50.000Z,2531
2024-01-20T08:31:04.882Z,2514
2024-01-20T08:33:33.000Z,2595
2024-01-20T08:34:47.000Z,2642
2024-01-20T08:36:01.000Z,2635
2024-01-20T08:37:16.200Z,2661
2024-01-20T08:38:30.000Z,2672
2024-01-20T08:39:44.000Z,2701
2024-01-20T08:40:58.000Z,2716
2024-01-20T08:42:13.000Z,2733
2024-01-20T08:43:27.000Z,2759
2024-01-20T08:44:41.000Z,2763
2024-01-20T08:45:55.000Z,2797
2024-01-20T08:47:10.000Z,2791
2024-01-20T08:48:24.000Z,2829
2024-01-20T08:49:38.000Z,2836
2024-01-20T08:50:51.000Z,2865
2024-01-20T08:52:06.000Z,2850
2024-01-20T08:53:20.000Z,2885
2024-01-20T08:54:34.000Z,2916
2024-01-20T08:55:48.000Z,2905
2024-01-20T08:57:03.000Z,3008
2024-01-20T08:58:17.000Z,2960
2024-01-20T08:59:31.000Z,3031
2024-01-20T09:00:45.000Z,2968
2024-01-20T09:02:00.000Z,3000
2024-01-20T09:03:14.000Z,3041
2024-01-20T09:04:28.000Z,3039
2024-01-20T09:05:42.000Z,3052
2024-01-20T09:06:55.000Z,3034
2024-01-20T09:08:10.000Z,3094
2024-01-20T09:09:24.000Z,3081
2024-01-20T09:10:38.000Z,3112
2024-01-20T09:11:52.000Z,3139
2024-01-20T09:13:07.000Z,3140
2024-01-20T09:14:21.000Z,3228
2024-01-20T09:15:35.000Z,3111
2024-01-20T09:16:49.000Z,3169
2024-01-20T09:18:03.000Z,3246
2024-01-20T09:19:17.392Z,3205
2024-01-20T09:20:31.000Z,3226
2024-01-20T09:21:45.000Z,3224
2024-01-20T09:23:00.000Z,3201
2024-01-20T09:25:28.000Z,3129
2024-01-20T09:26:42.000Z,3110
2024-01-20T09:27:57.000Z,3092
2024-01-20T09:29:11.000Z,3074
2024-01-20T09:30:25.000Z,3074
2024-01-20T09:31:39.000Z,3073
2024-01-20T09:32:54.000Z,3073
2024-01-20T09:34:08.000Z,3079
2024-01-20T09:35:22.000Z,3086
2024-01-20T09:36:35.000Z,3095
2024-01-20T09:37:50.000Z,3095
2024-01-20T09:39:04.000Z,3095
2024-01-20T09:40:18.000Z,3090
2024-01-20T09:41:32.000Z,3080
2024-01-20T09:42:46.000Z,3073
2024-01-20T09:44:01.000Z,3060
2024-01-20T09:45:15.000Z,3046
2024-01-20T09:47:43.000Z,3033
2024-01-20T09:48:58.150Z,3036
2024-01-20T09:50:12.000Z,3045
2024-01-20T09:51:26.000Z,3047
2024-01-20T09:52:40.855Z,3047
2024-01-20T09:53:55.000Z,3045
2024-01-20T09:55:08.000Z,3046
2024-01-20T09:56:22.000Z,3054
2024-01-20T09:57:36.000Z,3065
2024-01-20T09:58:51.000Z,3070
2024-01-20T10:00:05.000Z,3062
2024-01-20T10:01:19.000Z,3060
2024-01-20T10:02:33.000Z,3066
2024-01-20T10:03:48.000Z,3061
2024-01-20T10:05:02.000Z,3035
2024-01-20T10:06:16.000Z,3001
2024-01-20T10:07:30.000Z,2987
2024-01-20T10:09:59.000Z,2960
2024-01-20T10:11:12.000Z,2965
2024-01-20T10:12:26.000Z,2968
2024-01-20T10:13:40.000Z,2958
2024-01-20T10:14:55.000Z,2953
2024-01-20T10:16:09.000Z,2948
2024-01-20T10:17:23.000Z,2946
2024-01-20T10:18:37.000Z,2961
2024-01-20T10:19:52.000Z,2999
2024-01-20T10:21:06.000Z,3037
2024-01-20T10:22:20.000Z,3046
2024-01-20T10:23:34.000Z,3005
2024-01-20T10:24:49.000Z,2977
2024-01-20T10:26:03.352Z,2964
2024-01-20T10:27:16.000Z,2945
2024-01-20T10:28:30.000Z,2940
2024-01-20T10:29:45.000Z,2932
2024-01-20T10:30:59.000Z,2932
2024-01-20T10:32:13.000Z,2961
2024-01-20T10:33:27.000Z,2967
2024-01-20T10:34:42.000Z,2955
2024-01-20T10:35:56.000Z,2942
2024-01-20T10:37:10.000Z,2921
2024-01-20T10:38:24.000Z,2921
2024-01-20T10:39:39.000Z,2923
2024-01-20T10:40:53.000Z,2907
2024-01-20T10:42:07.000Z,2896
2024-01-20T10:43:21.000Z,2872
2024-01-20T10:44:35.000Z,2858
2024-01-20T10:45:50.000Z,2852
2024-01-20T10:47:03.000Z,2829
2024-01-20T10:48:17.000Z,2811
2024-01-20T10:49:31.000Z,2803
2024-01-20T10:50:46.000Z,2793
2024-01-20T10:52:00.000Z,2781
2024-01-20T10:53:14.000Z,2762
2024-01-20T10:54:28.000Z,2751
2024-01-20T10:55:43.000Z,2741
2024-01-20T10:56:57.000Z,2720
2024-01-20T10:58:11.000Z,2697
2024-01-20T10:59:25.000Z,2679
2024-01-20T11:00:40.000Z,2664
2024-01-20T11:01:54.000Z,2656
2024-01-20T11:03:08.568Z,2650
2024-01-20T11:04:22.000Z,2642
2024-01-20T11:05:36.000Z,2634
2024-01-20T11:06:50.000Z,2624
2024-01-20T11:08:04.000Z,2617
2024-01-20T11:09:18.000Z,2619
2024-01-20T11:10:33.025Z,2621
2024-01-20T11:11:47.000Z,2616
2024-01-20T11:13:01.000Z,2604
2024-01-20T11:14:15.000Z,2600
2024-01-20T11:15:29.000Z,2592
2024-01-20T11:16:44.210Z,2590
2024-01-20T11:17:58.000Z,2590
2024-01-20T11:19:12.000Z,2581
2024-01-20T11:20:26.000Z,2575
2024-01-20T11:21:41.000Z,2572
2024-01-20T11:22:54.000Z,2578
2024-01-20T11:24:08.000Z,2578
2024-01-20T11:25:22.913Z,2576
2024-01-20T11:26:37.000Z,2573
2024-01-20T11:27:51.380Z,2572
2024-01-20T11:29:05.000Z,2569
2024-01-20T11:31:34.000Z,2557
2024-01-20T11:32:48.000Z,2552
2024-01-20T11:34:02.000Z,2549
2024-01-20T11:35:16.000Z,2546
2024-01-20T11:36:31.000Z,2541
2024-01-20T11:37:45.000Z,2541
2024-01-20T11:38:58.000Z,2537
2024-01-20T11:40:12.785Z,2540
2024-01-20T11:41:27.000Z,2539
2024-01-20T11:42:41.000Z,2537
2024-01-20T11:43:55.000Z,2534
2024-01-20T11:45:09.000Z,2527
2024-01-20T11:46:24.000Z,2525
2024-01-20T11:47:38.000Z,2529
2024-01-20T11:48:52.000Z,2531
2024-01-20T11:50:06.703Z,2525
2024-01-20T11:51:20.000Z,2522
2024-01-20T11:52:35.000Z,2518
2024-01-20T11:53:49.000Z,2512
2024-01-20T11:55:03.000Z,2507
2024-01-20T11:56:17.000Z,2508
2024-01-20T11:57:32.000Z,2501
2024-01-20T11:58:45.000Z,2494
2024-01-20T11:59:59.000Z,2500
2024-01-20T12:01:13.000Z,2495
2024-01-20T12:02:28.000Z,2491
2024-01-20T12:03:42.000Z,2487
2024-01-20T12:04:56.000Z,2485
2024-01-20T12:06:10.000Z,2478
2024-01-20T12:07:25.000Z,2477
2024-01-20T12:08:39.000Z,2472
2024-01-20T12:09:53.000Z,2469
2024-01-20T12:11:07.000Z,2465
2024-01-20T12:12:22.000Z,2458
2024-01-20T12:13:36.000Z,2454
2024-01-20T12:14:50.000Z,2456
2024-01-20T12:16:04.000Z,2454
2024-01-20T12:17:19.000Z,2448
2024-01-20T12:18:33.000Z,2444
2024-01-20T12:19:46.000Z,2442
2024-01-20T12:21:00.000Z,2435
2024-01-20T12:22:14.000Z,2430
2024-01-20T12:23:29.000Z,2431
2024-01-20T12:24:43.000Z,2429
2024-01-20T12:25:57.000Z,2426
2024-01-20T12:27:11.000Z,2420
2024-01-20T12:28:26.000Z,2418
2024-01-20T12:29:40.000Z,2415
2024-01-20T12:30:54.000Z,2413
2024-01-20T12:32:08.000Z,2409
2024-01-20T12:33:23.000Z,2401
2024-01-20T12:34:37.000Z,2400
2024-01-20T12:35:51.000Z,2395
2024-01-20T12:37:05.000Z,2392
2024-01-20T12:38:20.000Z,2390
2024-01-20T12:39:34.000Z,2384
2024-01-20T12:40:48.000Z,2379
2024-01-20T12:42:02.000Z,2368
2024-01-20T12:43:17.000Z,2366
2024-01-20T12:44:31.000Z,2363
2024-01-20T12:45:45.000Z,2356
2024-01-20T12:46:59.000Z,2350
2024-01-20T12:48:14.000Z,2345
2024-01-20T12:49:28.000Z,2342
2024-01-20T12:50:42.000Z,2332
2024-01-20T12:51:55.000Z,2323
2024-01-20T12:53:10.000Z,2321
2024-01-20T12:54:24.000Z,2319
2024-01-20T12:55:38.000Z,2312
2024-01-20T12:56:52.000Z,2304
2024-01-20T12:58:07.000Z,2301
2024-01-20T12:59:21.000Z,2292
2024-01-20T13:00:35.000Z,2290
2024-01-20T13:01:49.000Z,2287
2024-01-20T13:03:04.000Z,2280
2024-01-20T13:04:18.000Z,2275
2024-01-20T13:05:32.000Z,2267
2024-01-20T13:06:46.000Z,2258
2024-01-20T13:07:59.949Z,2252
2024-01-20T13:09:14.000Z,2247
2024-01-20T13:10:28.000Z,2240
2024-01-20T13:11:42.000Z,2232
2024-01-20T13:12:56.000Z,2224
2024-01-20T13:14:11.000Z,2220
2024-01-20T13:15:25.000Z,2215
2024-01-20T13:16:39.640Z,2206
2024-01-20T13:17:53.000Z,2199
2024-01-20T13:19:08.000Z,2191
2024-01-20T13:20:22.000Z,2184
2024-01-20T13:21:36.000Z,2171
2024-01-20T13:22:50.000Z,2165
2024-01-20T13:24:05.000Z,2158
2024-01-20T13:25:19.000Z,2155
2024-01-20T13:26:33.000Z,2145
2024-01-20T13:27:46.000Z,2139
2024-01-20T13:29:01.000Z,2129
2024-01-20T13:30:15.000Z,2120
2024-01-20T13:31:29.000Z,2112
2024-01-20T13:32:43.000Z,2105
2024-01-20T13:33:58.000Z,2094
2024-01-20T13:35:12.000Z,2085
2024-01-20T13:36:26.493Z,2077
2024-01-20T13:37:40.000Z,2069
2024-01-20T13:38:54.970Z,2060
2024-01-20T13:40:09.000Z,2049
2024-01-20T13:41:23.431Z,2038
2024-01-20T13:42:37.000Z,2031
2024-01-20T13:45:05.000Z,2009
2024-01-20T13:46:19.000Z,1993
2024-01-20T13:47:33.000Z,1972
2024-01-20T13:48:47.000Z,1951
2024-01-20T13:50:02.000Z,1943
2024-01-20T13:51:16.371Z,1939
2024-01-20T13:52:30.000Z,1933
2024-01-20T13:53:44.847Z,1923
2024-01-20T13:54:59.000Z,1913
2024-01-20T13:56:13.000Z,1881
2024-01-20T13:57:27.000Z,1851
2024-01-20T13:58:41.000Z,1805
2024-01-20T13:59:55.000Z,1810
2024-01-20T14:01:09.000Z,1846
2024-01-20T14:02:23.000Z,1836
2024-01-20T14:03:37.778Z,1823
2024-01-20T14:04:52.000Z,1809
2024-01-20T14:06:06.000Z,1795
2024-01-20T14:07:20.000Z,1756
2024-01-20T14:08:34.746Z,1713
2024-01-20T14:09:49.000Z,1677
2024-01-20T14:11:03.000Z,1665
2024-01-20T14:12:17.000Z,1674
2024-01-20T14:13:31.000Z,1679
2024-01-20T14:14:45.000Z,1675
2024-01-20T14:16:00.000Z,1652
2024-01-20T14:17:13.000Z,1634
2024-01-20T14:18:27.000Z,1614
2024-01-20T14:19:41.000Z,1594
2024-01-20T14:20:56.000Z,1570
2024-01-20T14:22:10.000Z,1537
2024-01-20T14:23:24.000Z,1510
2024-01-20T14:24:38.000Z,1493
2024-01-20T14:25:53.000Z,1479
2024-01-20T14:27:07.000Z,1468
2024-01-20T14:28:21.000Z,1459
2024-01-20T14:29:35.000Z,1451
2024-01-20T14:32:04.000Z,1415
2024-01-20T14:33:17.000Z,1394
2024-01-20T14:34:31.000Z,1375
2024-01-20T14:35:46.000Z,1347
2024-01-20T14:37:00.000Z,1329
2024-01-20T14:38:14.000Z,1308
2024-01-20T14:39:28.000Z,1286
2024-01-20T14:40:43.000Z,1262
2024-01-20T14:41:57.000Z,1240
2024-01-20T14:43:11.000Z,1222
2024-01-20T14:44:25.000Z,1197
2024-01-20T14:45:39.000Z,1174
2024-01-20T14:46:54.000Z,1153
2024-01-20T14:48:08.000Z,1128
2024-01-20T14:49:22.000Z,1104
2024-01-20T14:50:35.000Z,1086
2024-01-20T14:51:50.000Z,1069
2024-01-20T14:53:04.000Z,1045
2024-01-20T14:54:18.000Z,1018
2024-01-20T14:56:47.121Z,968
2024-01-20T14:58:01.000Z,950
2024-01-20T14:59:15.000Z,931
2024-01-20T15:00:29.000Z,909
2024-01-20T15:01:44.000Z,886
2024-01-20T15:02:58.000Z,865
2024-01-20T15:04:12.000Z,842
2024-01-20T15:05:26.000Z,822
2024-01-20T15:06:41.000Z,799
2024-01-20T15:07:55.000Z,773
2024-01-20T15:09:09.000Z,746
2024-01-20T15:10:23.000Z,719
2024-01-20T15:11:38.000Z,696
2024-01-20T15:12:52.000Z,673
2024-01-20T15:14:06.000Z,642
2024-01-20T15:15:20.838Z,603
2024-01-20T15:16:35.000Z,569
2024-01-20T15:17:49.000Z,540
2024-01-20T15:19:03.000Z,511
2024-01-20T15:20:17.000Z,482
2024-01-20T15:21:32.000Z,459
2024-01-20T15:22:46.000Z,439
2024-01-20T15:23:59.000Z,418
2024-01-20T15:25:13.000Z,391
2024-01-20T15:26:28.000Z,365
2024-01-20T15:27:42.000Z,338
2024-01-20T15:28:56.469Z,315
2024-01-20T15:30:10.713Z,294
2024-01-20T15:31:24.000Z,274
2024-01-20T15:32:39.000Z,255
2024-01-20T15:33:53.000Z,239
2024-01-20T15:35:07.000Z,222
2024-01-20T15:36:21.000Z,204
2024-01-20T15:37:36.000Z,184
2024-01-20T15:38:50.000Z,166
2024-01-20T15:40:04.000Z,149
2024-01-20T15:41:18.000Z,137
2024-01-20T15:42:33.000Z,121
2024-01-20T15:43:46.000Z,109
2024-01-20T15:45:00.000Z,96
2024-01-20T15:46:14.000Z,81
2024-01-20T15:47:29.076Z,69
2024-01-20T15:48:43.000Z,60
2024-01-20T15:49:57.000Z,50
2024-01-20T15:51:11.000Z,44
2024-01-20T15:52:26.000Z,38
2024-01-20T15:53:40.000Z,28
2024-01-20T15:54:54.000Z,25
2024-01-20T15:56:08.000Z,23
2024-01-20T15:57:23.000Z,18
2024-01-20T15:58:37.000Z,14
2024-01-20T15:59:51.000Z,10
2024-01-20T16:01:05.000Z,11
2024-01-20T16:02:19.000Z,9
2024-01-20T16:03:34.000Z,9
2024-01-20T16:04:48.000Z,5
2024-01-20T16:06:01.000Z,7
2024-01-20T16:07:15.000Z,2
2024-01-20T16:08:30.000Z,3
2024-01-20T16:09:44.000Z,1
2024-01-20T16:10:58.000Z,2
2024-01-20T16:12:12.000Z,2
2024-01-20T16:13:27.133Z,1
2024-01-20T16:14:41.000Z,1
2024-01-20T16:15:55.646Z,1
2024-01-20T16:17:09.000Z,1
2024-01-20T16:18:24.000Z,0
2024-01-20T16:19:38.000Z,0
2024-01-20T16:20:52.000Z,0
2024-01-20T16:22:07.000Z,0
2024-01-20T16:23:21.000Z,0
2024-01-20T16:24:34.000Z,0
2024-01-20T16:25:48.000Z,0
2024-01-20T16:27:03.000Z,0
2024-01-20T16:28:17.000Z,0
2024-01-20T16:29:31.000Z,0
2024-01-20T16:30:46.000Z,0
2024-01-20T16:32:00.000Z,0
2024-01-20T16:33:14.000Z,0
2024-01-20T16:34:29.000Z,0
2024-01-20T16:35:43.000Z,0
2024-01-20T16:36:57.000Z,0
2024-01-20T16:38:11.000Z,0
2024-01-20T16:39:26.000Z,0
2024-01-20T16:40:40.000Z,0
2024-01-20T16:41:54.000Z,0
2024-01-20T16:43:09.000Z,0
2024-01-20T16:44:23.000Z,0
2024-01-20T16:45:37.000Z,0
2024-01-20T16:46:52.000Z,0
2024-01-20T16:48:06.000Z,0
2024-01-20T16:50:34.000Z,0
2024-01-20T16:51:49.000Z,0
2024-01-20T16:53:03.000Z,0
2024-01-20T16:54:17.000Z,0
2024-01-20T16:55:32.000Z,0
2024-01-20T16:56:46.000Z,0
2024-01-20T16:58:00.000Z,0
2024-01-20T16:59:15.000Z,0
2024-01-20T17:00:29.000Z,0
2024-01-20T17:01:43.000Z,0
2024-01-20T17:02:58.000Z,0
2024-01-20T17:04:12.000Z,0
2024-01-20T17:05:26.000Z,0
2024-01-20T17:06:40.000Z,0
2024-01-20T17:07:55.000Z,0
2024-01-20T17:09:09.000Z,0
2024-01-20T17:10:23.000Z,0
2024-01-20T17:11:38.048Z,0
2024-01-20T17:12:52.000Z,0
2024-01-20T17:14:05.000Z,0
2024-01-20T17:15:19.000Z,0
2024-01-20T17:16:34.000Z,0
2024-01-20T17:17:48.000Z,0
2024-01-20T17:19:02.000Z,0
2024-01-20T17:20:17.000Z,0
2024-01-20T17:21:31.000Z,0
2024-01-20T17:22:45.000Z,0
2024-01-20T17:24:00.000Z,0
2024-01-20T17:25:14.000Z,0
2024-01-20T17:26:28.000Z,0
2024-01-20T17:27:42.888Z,0
2024-01-20T17:28:57.000Z,0
2024-01-20T17:30:10.000Z,0
2024-01-20T17:31:24.000Z,0
2024-01-20T17:32:39.000Z,0
2024-01-20T17:33:53.000Z,0
2024-01-20T17:35:07.000Z,0
2024-01-20T17:36:21.965Z,0
2024-01-20T17:37:36.000Z,0
2024-01-20T17:38:49.575Z,0
2024-01-20T17:40:03.000Z,0
2024-01-20T17:41:18.166Z,0
2024-01-20T17:42:32.000Z,0
2024-01-20T17:43:46.000Z,0
2024-01-20T17:45:01.000Z,0
2024-01-20T17:46:15.341Z,0
2024-01-20T17:47:29.000Z,0
2024-01-20T17:48:43.000Z,0
2024-01-20T17:49:58.000Z,0